Time;durP1;ratioP1;P1;durP2;ratioP2;P2;SDS_P1;SDS_P2;PMS_P1;PMS_P2;Temp;Humidity;BMP_temperature;BMP_pressure;BME280_temperature;BME280_humidity;BME280_pressure;Samples;Min_cycle;Max_cycle;Signal;HPM_P1;HPM_P2
2022/12/31 00:01:19;;;;;;;24.90;22.95;;;15.30;99.90;;;;;;4923242;29;20027;-92
2022/12/31 00:03:45;;;;;;;23.25;21.23;;;15.30;99.90;;;;;;4940244;29;20035;-93
2022/12/31 00:06:16;;;;;;;20.92;19.40;;;15.30;99.90;;;;;;4939978;29;20019;-94
2022/12/31 00:08:43;;;;;;;;;;;15.30;99.90;;;;;;4923186;29;20039;-93
2022/12/31 00:11:09;;;;;;;18.40;16.83;;;15.30;99.90;;;;;;4939926;29;19913;-93
2022/12/31 00:13:35;;;;;;;19.08;17.13;;;15.30;99.90;;;;;;4924253;29;20027;-93
2022/12/31 00:16:06;;;;;;;18.38;16.67;;;15.30;99.90;;;;;;4923263;29;20381;-92
2022/12/31 00:18:32;;;;;;;19.90;18.35;;;15.30;99.90;;;;;;4939884;29;20381;-92
2022/12/31 00:21:00;;;;;;;19.50;17.85;;;15.30;99.90;;;;;;4934070;29;20040;-92
2022/12/31 00:23:26;;;;;;;18.40;17.10;;;15.30;99.90;;;;;;4938946;29;20039;-93
2022/12/31 00:25:52;;;;;;;19.73;18.02;;;15.30;99.90;;;;;;4953816;29;20047;-92
2022/12/31 00:28:19;;;;;;;21.05;19.17;;;15.30;99.90;;;;;;4938931;29;20035;-93
2022/12/31 00:30:45;;;;;;;18.00;16.42;;;15.40;99.90;;;;;;4922358;29;20032;-93
2022/12/31 00:33:11;;;;;;;20.63;18.80;;;15.40;99.90;;;;;;4923589;29;20035;-92
2022/12/31 00:35:37;;;;;;;23.30;21.55;;;15.30;99.90;;;;;;4923510;29;20035;-93
2022/12/31 00:38:03;;;;;;;19.90;18.38;;;15.40;99.90;;;;;;4956063;29;20480;-92
2022/12/31 00:40:29;;;;;;;23.13;21.35;;;15.40;99.90;;;;;;4938910;29;20099;-91
2022/12/31 00:42:55;;;;;;;22.25;20.48;;;15.40;99.90;;;;;;4955883;29;20027;-92
2022/12/31 00:45:21;;;;;;;18.55;17.05;;;15.40;99.90;;;;;;4938581;28;20034;-91
2022/12/31 00:47:47;;;;;;;18.02;16.48;;;15.40;99.90;;;;;;4926843;29;20043;-93
2022/12/31 00:50:13;;;;;;;20.08;18.20;;;15.50;99.90;;;;;;4928673;29;20480;-92
2022/12/31 00:52:39;;;;;;;26.90;25.25;;;15.50;99.90;;;;;;4961759;29;20031;-92
2022/12/31 00:55:06;;;;;;;21.48;19.85;;;15.50;99.90;;;;;;4943651;29;20428;-91
2022/12/31 00:57:32;;;;;;;20.90;19.00;;;15.50;99.90;;;;;;4961294;29;20038;-92
2022/12/31 00:59:58;;;;;;;22.45;20.67;;;15.50;99.90;;;;;;4943206;29;20548;-92
2022/12/31 01:02:24;;;;;;;21.58;19.65;;;15.50;99.90;;;;;;4942533;29;20031;-93
2022/12/31 01:04:50;;;;;;;20.60;18.60;;;15.50;99.90;;;;;;4923677;29;20038;-92
2022/12/31 01:07:16;;;;;;;20.88;19.30;;;15.50;99.90;;;;;;4955201;29;20047;-92
2022/12/31 01:09:43;;;;;;;19.73;18.33;;;15.50;99.90;;;;;;4955451;29;20035;-91
2022/12/31 01:12:09;;;;;;;21.73;20.13;;;15.50;99.90;;;;;;4955191;29;20492;-92
2022/12/31 01:14:35;;;;;;;23.92;21.77;;;15.50;99.90;;;;;;4954998;29;20028;-93
2022/12/31 01:17:01;;;;;;;23.23;21.27;;;15.50;99.90;;;;;;4937898;28;20031;-92
2022/12/31 01:19:27;;;;;;;24.50;22.60;;;15.60;99.90;;;;;;4954830;28;20043;-93
2022/12/31 01:21:54;;;;;;;24.95;22.58;;;15.50;99.90;;;;;;4937389;29;20050;-92
2022/12/31 01:24:20;;;;;;;23.20;21.58;;;15.50;99.90;;;;;;4954244;29;20461;-92
2022/12/31 01:26:46;;;;;;;25.50;23.05;;;15.50;99.90;;;;;;4954898;29;20039;-91
2022/12/31 01:29:12;;;;;;;26.83;25.00;;;15.50;99.90;;;;;;4922176;29;20038;-92
2022/12/31 01:31:39;;;;;;;26.02;23.65;;;15.50;99.90;;;;;;4937687;29;20039;-91
2022/12/31 01:34:05;;;;;;;24.42;22.83;;;15.50;99.90;;;;;;4938120;29;20476;-91
2022/12/31 01:36:32;;;;;;;23.95;22.08;;;15.50;99.90;;;;;;4922241;29;20039;-93
2022/12/31 01:38:59;;;;;;;25.73;23.65;;;15.50;99.90;;;;;;4954997;29;20043;-93
2022/12/31 01:41:28;;;;;;;25.13;23.15;;;15.40;99.90;;;;;;4937943;29;20396;-91
2022/12/31 01:44:12;;;;;;;24.42;22.42;;;15.40;99.90;;;;;;4937995;29;20034;-92
2022/12/31 01:46:43;;;;;;;22.85;21.08;;;15.40;99.90;;;;;;4954396;28;20036;-91
2022/12/31 01:49:20;;;;;;;24.35;22.45;;;15.40;99.90;;;;;;4922557;29;20035;-91
2022/12/31 01:51:49;;;;;;;23.67;21.52;;;15.40;99.90;;;;;;4922480;29;20378;-92
2022/12/31 01:54:15;;;;;;;25.48;23.13;;;15.40;99.90;;;;;;4938387;29;20023;-92
2022/12/31 01:56:41;;;;;;;25.77;23.58;;;15.50;99.90;;;;;;4921800;29;20040;-92
2022/12/31 01:59:09;;;;;;;28.40;26.38;;;15.50;99.90;;;;;;4922145;29;20051;-93
2022/12/31 02:01:35;;;;;;;23.83;21.98;;;15.40;99.90;;;;;;4937430;28;20031;-91
2022/12/31 02:04:04;;;;;;;26.25;24.23;;;15.50;99.90;;;;;;4922428;29;20031;-92
2022/12/31 02:06:39;;;;;;;23.13;20.95;;;15.50;99.90;;;;;;4922046;29;20031;-92
2022/12/31 02:09:06;;;;;;;22.70;20.48;;;15.50;99.90;;;;;;4921397;29;20058;-92
2022/12/31 02:11:35;;;;;;;25.40;23.40;;;15.50;99.90;;;;;;4936924;29;20050;-93
2022/12/31 02:14:08;;;;;;;25.20;23.05;;;15.50;99.90;;;;;;4938071;29;20035;-93
2022/12/31 02:16:43;;;;;;;24.40;22.42;;;15.40;99.90;;;;;;4922419;29;20485;-93
2022/12/31 02:19:32;;;;;;;22.23;20.15;;;15.40;99.90;;;;;;4937972;29;20050;-92
2022/12/31 02:22:20;;;;;;;24.77;22.60;;;15.40;99.90;;;;;;4840858;29;20037;-94
2022/12/31 02:24:55;;;;;;;24.50;20.95;;;15.40;99.90;;;;;;4840594;29;20369;-92
2022/12/31 02:27:33;;;;;;;22.80;20.55;;;15.40;99.90;;;;;;4840427;29;20178;-93
2022/12/31 02:30:22;;;;;;;23.20;21.15;;;15.40;99.90;;;;;;4840291;29;20030;-91
2022/12/31 02:32:57;;;;;;;22.70;19.45;;;15.40;99.90;;;;;;4826467;29;20042;-92
2022/12/31 02:35:28;;;;;;;19.40;17.52;;;15.40;99.90;;;;;;4827870;29;20038;-91
2022/12/31 02:38:01;;;;;;;22.52;19.48;;;15.30;99.90;;;;;;4827853;29;20038;-93
2022/12/31 02:40:27;;;;;;;19.52;17.67;;;15.30;99.90;;;;;;4828710;29;20057;-92
2022/12/31 02:42:53;;;;;;;21.98;20.10;;;15.30;99.90;;;;;;4828437;29;20037;-92
2022/12/31 02:45:23;;;;;;;20.38;18.65;;;15.30;99.90;;;;;;4827700;29;20049;-92
2022/12/31 02:48:00;;;;;;;20.20;18.30;;;15.30;99.90;;;;;;4828030;29;20053;-93
2022/12/31 02:50:58;;;;;;;22.05;19.98;;;15.30;99.90;;;;;;4829343;29;20135;-92
2022/12/31 02:53:51;;;;;;;20.92;18.80;;;15.30;99.90;;;;;;4773531;30;20054;-93
2022/12/31 02:56:29;;;;;;;22.83;20.65;;;15.30;99.90;;;;;;4773278;30;20047;-92
2022/12/31 03:02:14;;;;;;;23.13;21.42;;;15.20;99.90;;;;;;4851869;29;20126;-92
2022/12/31 03:04:54;;;;;;;22.60;20.73;;;15.20;99.90;;;;;;4873188;29;20434;-93
2022/12/31 03:07:21;;;;;;;21.23;19.48;;;15.20;99.90;;;;;;4860405;29;20048;-91
2022/12/31 03:09:47;;;;;;;22.63;20.60;;;15.20;99.90;;;;;;4864318;29;20049;-92
2022/12/31 03:14:58;;;;;;;21.30;19.08;;;15.20;99.90;;;;;;4888055;29;20040;-92
2022/12/31 03:17:25;;;;;;;26.70;23.65;;;15.10;99.90;;;;;;4870832;29;20041;-93
2022/12/31 03:22:38;;;;;;;23.38;21.25;;;15.10;99.90;;;;;;4889931;29;20129;-92
2022/12/31 03:27:55;;;;;;;23.90;21.50;;;15.10;99.90;;;;;;4873640;29;20048;-93
2022/12/31 03:30:21;;;;;;;25.42;23.13;;;15.10;99.90;;;;;;4909803;28;20047;-93
2022/12/31 03:32:48;;;;;;;25.52;23.35;;;15.10;99.90;;;;;;4943299;29;20488;-92
2022/12/31 03:35:14;;;;;;;24.20;21.85;;;15.10;99.90;;;;;;4943498;29;20032;-92
2022/12/31 03:37:41;;;;;;;25.08;23.02;;;15.10;99.90;;;;;;4964638;29;20038;-93
2022/12/31 03:40:09;;;;;;;22.92;21.00;;;15.10;99.90;;;;;;4932121;29;20023;-92
2022/12/31 03:42:35;;;;;;;25.45;23.15;;;15.10;99.90;;;;;;4949668;29;20039;-91
2022/12/31 03:45:01;;;;;;;22.38;20.35;;;15.10;99.90;;;;;;4964280;29;20023;-92
2022/12/31 03:47:27;;;;;;;22.20;20.08;;;15.10;99.90;;;;;;4942464;29;20042;-92
2022/12/31 03:49:53;;;;;;;20.95;18.90;;;15.10;99.90;;;;;;4960212;29;20054;-92
2022/12/31 03:52:19;;;;;;;23.05;20.95;;;15.20;99.90;;;;;;4960035;29;20038;-91
2022/12/31 03:54:46;;;;;;;19.35;16.35;;;15.20;99.90;;;;;;4957970;29;20039;-92
2022/12/31 03:57:12;;;;;;;23.65;20.67;;;15.20;99.90;;;;;;4959737;29;20381;-92
2022/12/31 03:59:38;;;;;;;22.42;15.90;;;15.20;99.90;;;;;;4957314;29;20051;-92
2022/12/31 04:02:04;;;;;;;18.27;16.48;;;15.30;99.90;;;;;;4957054;28;20042;-92
2022/12/31 04:04:30;;;;;;;18.23;16.35;;;15.30;99.90;;;;;;4940597;29;20492;-92
2022/12/31 04:06:56;;;;;;;23.33;21.30;;;15.30;99.90;;;;;;4940123;29;20023;-91
2022/12/31 04:09:22;;;;;;;19.08;17.17;;;15.30;99.90;;;;;;4924004;29;20058;-91
2022/12/31 04:11:48;;;;;;;21.60;19.38;;;15.40;99.90;;;;;;4924083;29;20031;-93
2022/12/31 04:14:16;;;;;;;22.70;19.88;;;15.40;99.90;;;;;;4957046;29;20035;-92
2022/12/31 04:16:42;;;;;;;21.15;19.20;;;15.40;99.90;;;;;;4939081;28;20038;-93
2022/12/31 04:19:09;;;;;;;19.95;17.80;;;15.40;99.90;;;;;;4956654;29;20032;-91
2022/12/31 04:21:35;;;;;;;20.35;18.45;;;15.40;99.90;;;;;;4937496;29;20477;-91
2022/12/31 04:24:01;;;;;;;21.50;19.60;;;15.40;99.90;;;;;;4955808;29;20028;-92
2022/12/31 04:26:28;;;;;;;19.60;17.65;;;15.30;99.90;;;;;;4916579;29;20504;-92
2022/12/31 04:28:54;;;;;;;18.83;17.13;;;15.30;99.90;;;;;;4923003;29;20046;-92
2022/12/31 04:31:20;;;;;;;22.67;18.98;;;15.30;99.90;;;;;;4938132;29;20042;-91
2022/12/31 04:33:46;;;;;;;19.98;17.95;;;15.30;99.90;;;;;;4938687;29;20383;-92
2022/12/31 04:36:12;;;;;;;21.58;19.48;;;15.30;99.90;;;;;;4955434;29;20031;-90
2022/12/31 04:38:38;;;;;;;18.35;16.48;;;15.30;99.90;;;;;;4922601;29;20042;-91
2022/12/31 04:41:16;;;;;;;21.45;16.02;;;15.30;99.90;;;;;;4955553;29;20027;-92
2022/12/31 04:43:43;;;;;;;17.58;15.95;;;15.30;99.90;;;;;;4940270;29;20032;-91
2022/12/31 04:46:10;;;;;;;17.65;15.75;;;15.40;99.90;;;;;;4922142;29;20038;-91
2022/12/31 04:48:36;;;;;;;19.42;17.63;;;15.30;99.90;;;;;;4922564;29;20046;-91
2022/12/31 04:51:02;;;;;;;19.70;18.05;;;15.30;99.90;;;;;;4937637;29;20039;-91
2022/12/31 04:53:28;;;;;;;20.02;17.85;;;15.30;99.90;;;;;;4938300;29;20038;-92
2022/12/31 04:55:54;;;;;;;19.10;17.25;;;15.30;99.90;;;;;;4937631;29;20380;-90
2022/12/31 04:58:21;;;;;;;22.40;18.98;;;15.20;99.90;;;;;;4937741;29;20039;-91
2022/12/31 05:00:48;;;;;;;18.02;16.27;;;15.20;99.90;;;;;;4937650;28;20043;-91
2022/12/31 05:03:15;;;;;;;24.63;18.67;;;15.20;99.90;;;;;;4922546;29;20050;-91
2022/12/31 05:05:42;;;;;;;20.35;18.27;;;15.20;99.90;;;;;;4937875;29;20031;-92
2022/12/31 05:08:09;;;;;;;23.52;21.08;;;15.20;99.90;;;;;;4937971;29;20389;-92
2022/12/31 05:10:35;;;;;;;24.38;22.33;;;15.10;99.90;;;;;;4938168;29;20031;-92
2022/12/31 05:13:01;;;;;;;23.88;21.38;;;15.10;99.90;;;;;;4937913;29;20039;-91
2022/12/31 05:15:27;;;;;;;22.60;20.65;;;15.10;99.90;;;;;;4954437;28;20388;-92
2022/12/31 05:17:53;;;;;;;27.95;23.08;;;15.10;99.90;;;;;;4937762;29;20035;-91
2022/12/31 05:20:19;;;;;;;32.03;22.27;;;15.10;99.90;;;;;;4936982;29;20035;-91
2022/12/31 05:22:45;;;;;;;24.75;22.13;;;15.10;99.90;;;;;;4954857;29;20034;-92
2022/12/31 05:25:11;;;;;;;22.17;19.40;;;15.00;99.90;;;;;;4954965;29;20031;-91
2022/12/31 05:27:38;;;;;;;24.73;21.35;;;15.00;99.90;;;;;;4938609;29;20046;-92
2022/12/31 05:30:05;;;;;;;26.75;21.08;;;15.00;99.90;;;;;;4936785;28;20046;-91
2022/12/31 05:32:31;;;;;;;31.98;21.23;;;14.90;99.90;;;;;;4937716;29;20476;-91
2022/12/31 05:34:58;;;;;;;24.58;20.92;;;14.90;99.90;;;;;;4921655;29;20027;-91
2022/12/31 05:37:28;;;;;;;31.83;22.95;;;14.80;99.90;;;;;;4937184;29;20277;-90
2022/12/31 05:39:54;;;;;;;31.55;22.23;;;14.80;99.90;;;;;;4921911;29;20023;-90
2022/12/31 05:42:20;;;;;;;28.23;22.13;;;14.80;99.90;;;;;;4922094;29;20035;-91
2022/12/31 05:44:46;;;;;;;28.20;23.35;;;14.70;99.90;;;;;;4937685;29;20035;-93
2022/12/31 05:47:13;;;;;;;29.67;24.55;;;14.80;99.90;;;;;;4937062;28;20412;-91
2022/12/31 05:49:39;;;;;;;27.98;23.50;;;14.70;99.90;;;;;;4937130;29;20495;-92
2022/12/31 05:52:05;;;;;;;31.30;23.67;;;14.70;99.90;;;;;;4937513;29;20031;-91
2022/12/31 05:54:31;;;;;;;30.40;23.27;;;14.70;99.90;;;;;;4922220;29;20035;-92
2022/12/31 05:56:58;;;;;;;30.33;24.80;;;14.70;99.90;;;;;;4921780;29;20034;-91
2022/12/31 05:59:24;;;;;;;31.45;22.92;;;14.70;99.90;;;;;;4921585;29;20051;-92
2022/12/31 06:01:50;;;;;;;28.25;25.13;;;14.70;99.90;;;;;;4936927;28;20039;-91
2022/12/31 06:04:16;;;;;;;32.67;23.30;;;14.70;99.90;;;;;;4937137;29;20370;-92
2022/12/31 06:06:42;;;;;;;28.65;25.55;;;14.70;99.90;;;;;;4939817;29;20057;-90
2022/12/31 06:09:08;;;;;;;30.30;23.73;;;14.70;99.90;;;;;;4958169;29;20039;-92
2022/12/31 06:11:34;;;;;;;36.15;23.42;;;14.70;99.90;;;;;;4940518;29;20042;-90
2022/12/31 06:14:00;;;;;;;37.30;25.95;;;14.60;99.90;;;;;;4943228;29;20035;-92
2022/12/31 06:16:26;;;;;;;38.05;27.27;;;14.60;99.90;;;;;;4924750;29;20469;-92
2022/12/31 06:18:53;;;;;;;32.78;25.08;;;14.60;99.90;;;;;;4940842;29;20031;-91
2022/12/31 06:21:19;;;;;;;34.90;26.65;;;14.60;99.90;;;;;;4936886;29;20051;-91
2022/12/31 06:23:46;;;;;;;39.40;22.33;;;14.70;99.90;;;;;;4957988;29;20416;-91
2022/12/31 06:26:12;;;;;;;27.52;22.75;;;14.60;99.90;;;;;;4937308;29;20027;-91
2022/12/31 06:28:38;;;;;;;35.05;24.52;;;14.60;99.90;;;;;;4941297;29;20393;-91
2022/12/31 06:31:06;;;;;;;34.47;22.95;;;14.60;99.90;;;;;;4926685;29;20488;-90
2022/12/31 06:33:32;;;;;;;31.35;23.38;;;14.60;99.90;;;;;;4944039;29;20035;-90
2022/12/31 06:36:00;;;;;;;31.30;22.77;;;14.60;99.90;;;;;;4944216;29;20038;-92
2022/12/31 06:38:29;;;;;;;28.83;22.92;;;14.60;99.90;;;;;;4928596;29;20039;-90
2022/12/31 06:40:55;;;;;;;33.90;22.65;;;14.60;99.90;;;;;;4912603;29;20039;-91
2022/12/31 06:43:21;;;;;;;27.10;22.08;;;14.70;99.90;;;;;;4959765;29;20031;-91
2022/12/31 06:45:47;;;;;;;29.38;24.33;;;14.70;99.90;;;;;;4941476;28;20054;-91
2022/12/31 06:48:13;;;;;;;33.58;24.33;;;14.60;99.90;;;;;;4940740;29;20038;-90
2022/12/31 06:50:40;;;;;;;30.10;23.25;;;14.60;99.90;;;;;;4924873;29;20042;-91
2022/12/31 06:53:06;;;;;;;26.17;22.52;;;14.60;99.90;;;;;;4926286;29;20081;-91
2022/12/31 06:55:33;;;;;;;34.22;23.15;;;14.60;99.90;;;;;;4925207;29;20023;-91
2022/12/31 06:57:59;;;;;;;36.60;22.55;;;14.60;99.90;;;;;;4941830;29;20043;-91
2022/12/31 07:00:25;;;;;;;34.65;23.38;;;14.60;99.90;;;;;;4956820;28;20401;-91
2022/12/31 07:02:58;;;;;;;33.95;24.50;;;14.60;99.90;;;;;;4957159;29;20035;-91
2022/12/31 07:05:37;;;;;;;38.40;24.05;;;14.50;99.90;;;;;;4957281;29;20050;-90
2022/12/31 07:08:12;;;;;;;43.53;23.42;;;14.50;99.90;;;;;;4925683;29;20039;-92
2022/12/31 07:10:47;;;;;;;27.25;24.30;;;14.50;99.90;;;;;;4957234;29;20480;-91
2022/12/31 07:13:50;;;;;;;27.35;24.17;;;14.50;99.90;;;;;;4923778;29;20052;-91
2022/12/31 07:16:44;;;;;;;38.03;24.70;;;14.50;99.90;;;;;;4956495;28;20049;-91
2022/12/31 07:19:36;;;;;;;38.33;22.52;;;14.40;99.90;;;;;;4939392;29;20038;-91
2022/12/31 07:22:02;;;;;;;;;;;14.40;99.90;;;;;;4938228;29;20032;-91
2022/12/31 07:24:28;;;;;;;33.85;22.83;;;14.40;99.90;;;;;;4920887;29;19927;-91
2022/12/31 07:27:15;;;;;;;41.85;22.60;;;14.40;99.90;;;;;;4950405;29;20469;-90
2022/12/31 07:30:19;;;;;;;39.75;24.35;;;14.40;99.90;;;;;;4956580;29;20080;-91
2022/12/31 07:33:04;;;;;;;31.60;23.15;;;14.30;99.90;;;;;;4859586;29;20435;-91
2022/12/31 07:35:36;;;;;;;32.78;23.20;;;14.30;99.90;;;;;;4844755;29;20342;-91
2022/12/31 07:38:12;;;;;;;31.77;22.48;;;14.30;99.90;;;;;;4845143;29;20068;-90
2022/12/31 07:40:56;;;;;;;35.03;23.58;;;14.30;99.90;;;;;;4845583;29;20037;-90
2022/12/31 07:43:30;;;;;;;35.72;24.95;;;14.30;99.90;;;;;;4844785;29;20042;-91
2022/12/31 07:45:59;;;;;;;36.38;25.70;;;14.30;99.90;;;;;;4844376;29;20041;-92
2022/12/31 07:48:26;;;;;;;36.80;23.50;;;14.30;99.90;;;;;;4860245;29;20052;-92
2022/12/31 07:50:55;;;;;;;29.15;25.35;;;14.30;99.90;;;;;;4829639;29;20037;-91
2022/12/31 07:53:22;;;;;;;33.35;21.60;;;14.30;99.90;;;;;;4860105;29;20034;-90
2022/12/31 07:55:54;;;;;;;30.25;22.77;;;14.30;99.90;;;;;;4860147;29;20048;-92
2022/12/31 07:58:28;;;;;;;32.85;22.83;;;14.30;99.90;;;;;;4845158;29;20590;-91
2022/12/31 08:00:55;;;;;;;27.67;21.35;;;14.30;99.90;;;;;;4844545;29;20057;-91
2022/12/31 08:03:30;;;;;;;33.25;21.35;;;14.30;99.90;;;;;;4829151;29;20078;-91
2022/12/31 08:06:06;;;;;;;39.15;22.73;;;14.20;99.90;;;;;;4846325;29;20060;-91
2022/12/31 08:08:38;;;;;;;38.15;23.25;;;14.20;99.90;;;;;;4879678;29;20047;-93
2022/12/31 08:11:13;;;;;;;25.08;21.65;;;14.20;99.90;;;;;;4939162;29;20039;-92
2022/12/31 08:13:39;;;;;;;29.83;21.52;;;14.20;99.90;;;;;;4926394;29;20512;-90
2022/12/31 08:16:10;;;;;;;28.05;23.33;;;14.20;99.90;;;;;;4913135;29;20039;-91
2022/12/31 08:18:36;;;;;;;25.02;22.27;;;14.20;99.90;;;;;;4947523;29;20062;-91
2022/12/31 08:21:14;;;;;;;30.63;23.95;;;14.20;99.90;;;;;;4958170;29;20031;-91
2022/12/31 08:24:03;;;;;;;24.95;22.25;;;14.20;99.90;;;;;;4963116;29;20023;-93
2022/12/31 08:26:40;;;;;;;34.75;23.60;;;14.20;99.90;;;;;;4940093;29;20031;-91
2022/12/31 08:29:06;;;;;;;26.25;23.35;;;14.20;99.90;;;;;;4930489;29;20051;-91
2022/12/31 08:31:35;;;;;;;27.15;24.17;;;14.20;99.90;;;;;;4963167;28;20404;-91
2022/12/31 08:34:22;;;;;;;29.52;23.73;;;14.20;99.90;;;;;;4963582;29;20042;-92
2022/12/31 08:36:51;;;;;;;26.67;21.58;;;14.20;99.90;;;;;;4947375;29;20047;-91
2022/12/31 08:39:27;;;;;;;26.77;23.08;;;14.20;99.90;;;;;;4963561;29;20038;-90
2022/12/31 08:41:54;;;;;;;28.77;21.60;;;14.20;99.90;;;;;;4942078;29;20038;-92
2022/12/31 08:44:38;;;;;;;31.23;23.13;;;14.20;99.90;;;;;;4956681;29;20035;-92
2022/12/31 08:47:19;;;;;;;32.95;27.40;;;14.20;99.90;;;;;;4939146;28;20035;-92
2022/12/31 08:49:45;;;;;;;27.17;24.42;;;14.30;99.90;;;;;;4938721;29;20050;-91
2022/12/31 08:52:19;;;;;;;34.53;25.55;;;14.30;99.90;;;;;;4922487;29;20040;-92
2022/12/31 08:54:45;;;;;;;33.60;26.05;;;14.30;99.90;;;;;;4923837;29;20031;-91
2022/12/31 08:57:18;;;;;;;28.75;25.83;;;14.30;99.90;;;;;;4923267;29;20027;-91
2022/12/31 09:00:10;;;;;;;30.02;24.45;;;14.30;99.90;;;;;;4935699;29;20047;-90
2022/12/31 09:02:57;;;;;;;32.80;22.30;;;14.30;99.90;;;;;;4935081;29;20038;-91
2022/12/31 09:05:42;;;;;;;30.88;18.88;;;14.40;99.90;;;;;;4935513;29;20047;-91
2022/12/31 09:08:15;;;;;;;28.73;18.63;;;14.40;99.90;;;;;;4935114;29;20047;-91
2022/12/31 09:11:05;;;;;;;24.05;18.05;;;14.40;99.90;;;;;;4935295;29;20492;-91
2022/12/31 09:13:46;;;;;;;25.85;16.67;;;14.40;99.90;;;;;;4934999;29;20039;-92
2022/12/31 09:16:18;;;;;;;;;;;14.40;99.90;;;;;;4934905;29;20028;-92
2022/12/31 09:18:44;;;;;;;;;;;14.40;99.90;;;;;;4935115;29;19906;-91
2022/12/31 09:21:11;;;;;;;23.40;19.50;;;14.50;99.90;;;;;;4931518;29;19930;-91
2022/12/31 09:23:38;;;;;;;25.52;19.70;;;14.50;99.90;;;;;;4915732;29;20024;-91
2022/12/31 09:26:22;;;;;;;22.13;18.38;;;14.50;99.90;;;;;;4934329;29;20508;-92
2022/12/31 09:28:57;;;;;;;23.35;19.33;;;14.50;99.90;;;;;;4935493;29;20039;-90
2022/12/31 09:31:39;;;;;;;22.27;17.55;;;14.50;99.90;;;;;;4935373;28;20035;-91
2022/12/31 09:34:15;;;;;;;32.42;20.58;;;14.50;99.90;;;;;;4919237;29;20028;-89
2022/12/31 09:36:47;;;;;;;25.58;20.17;;;14.50;99.90;;;;;;4921052;29;20496;-91
2022/12/31 09:39:31;;;;;;;26.55;18.42;;;14.50;99.90;;;;;;4922054;29;20037;-91
2022/12/31 09:42:07;;;;;;;24.23;19.67;;;14.50;99.90;;;;;;4942591;29;20024;-91
2022/12/31 09:45:00;;;;;;;25.70;19.75;;;14.60;99.90;;;;;;4945287;29;20038;-92
2022/12/31 09:47:39;;;;;;;23.98;16.75;;;14.60;99.90;;;;;;4945120;28;20039;-90
2022/12/31 09:50:55;;;;;;;21.35;18.25;;;14.60;99.90;;;;;;4945029;29;20039;-91
2022/12/31 09:53:27;;;;;;;27.83;19.10;;;14.60;99.90;;;;;;4885706;29;20053;-92
2022/12/31 09:56:27;;;;;;;22.40;19.90;;;14.60;99.90;;;;;;4867451;29;20410;-90
2022/12/31 09:59:09;;;;;;;20.13;16.85;;;14.70;99.90;;;;;;4876253;29;20491;-92
2022/12/31 10:01:40;;;;;;;22.77;14.18;;;14.70;99.90;;;;;;4868496;29;20048;-91
2022/12/31 10:04:21;;;;;;;;;;;14.70;99.90;;;;;;4867956;29;20052;-92
2022/12/31 10:07:18;;;;;;;18.55;15.43;;;14.70;99.90;;;;;;4882660;29;19919;-90
2022/12/31 10:09:47;;;;;;;24.15;14.07;;;14.70;99.90;;;;;;4866972;29;20511;-91
2022/12/31 10:12:25;;;;;;;17.63;13.95;;;14.70;99.90;;;;;;4882653;29;20041;-91
2022/12/31 10:14:55;;;;;;;20.83;14.23;;;14.80;99.90;;;;;;4882358;29;20044;-91
2022/12/31 10:18:02;;;;;;;21.63;13.45;;;14.80;99.90;;;;;;4881903;29;20041;-91
2022/12/31 10:20:39;;;;;;;22.00;15.43;;;14.80;99.90;;;;;;4845439;29;20038;-91
2022/12/31 10:23:25;;;;;;;19.92;16.20;;;14.80;99.90;;;;;;4832049;29;20408;-91
2022/12/31 10:25:54;;;;;;;26.55;15.82;;;14.90;99.90;;;;;;4851887;29;20033;-90
2022/12/31 10:28:35;;;;;;;20.48;13.95;;;14.90;99.90;;;;;;4882669;29;20045;-90
2022/12/31 10:31:04;;;;;;;20.10;14.48;;;14.90;99.90;;;;;;4865696;29;20085;-90
2022/12/31 10:33:44;;;;;;;20.33;14.98;;;15.00;99.90;;;;;;4882285;29;20036;-91
2022/12/31 10:36:31;;;;;;;16.50;14.75;;;15.00;99.90;;;;;;4882686;29;20033;-90
2022/12/31 10:39:41;;;;;;;19.17;15.05;;;15.10;99.90;;;;;;4880397;29;20502;-90
2022/12/31 10:42:19;;;;;;;22.10;14.68;;;15.10;99.90;;;;;;4882292;29;20478;-91
2022/12/31 10:45:19;;;;;;;18.35;13.68;;;15.20;99.90;;;;;;4882667;29;20048;-91
2022/12/31 10:48:06;;;;;;;21.55;15.30;;;15.20;99.90;;;;;;4881814;29;20217;-88
2022/12/31 10:50:44;;;;;;;17.40;13.05;;;15.20;99.90;;;;;;4882306;29;20045;-90
2022/12/31 10:53:41;;;;;;;20.80;12.85;;;15.20;99.90;;;;;;4879079;29;20057;-90
2022/12/31 10:56:20;;;;;;;21.48;14.48;;;15.30;99.90;;;;;;4864089;29;20523;-90
2022/12/31 10:59:19;;;;;;;15.65;14.00;;;15.30;99.90;;;;;;4867098;29;20150;-90
2022/12/31 11:01:56;;;;;;;21.08;15.15;;;15.40;99.90;;;;;;4866460;29;20079;-89
2022/12/31 11:05:02;;;;;;;20.42;13.65;;;15.40;99.90;;;;;;4866435;29;20048;-90
2022/12/31 11:07:33;;;;;;;16.83;13.98;;;15.40;99.90;;;;;;4881974;29;20025;-91
2022/12/31 11:10:19;;;;;;;21.02;15.13;;;15.50;99.90;;;;;;4897699;29;20044;-91
2022/12/31 11:12:53;;;;;;;14.45;13.00;;;15.50;99.90;;;;;;4883869;29;20145;-91
2022/12/31 11:15:19;;;;;;;15.07;13.48;;;15.50;99.90;;;;;;4882653;29;20039;-91
2022/12/31 11:18:20;;;;;;;18.65;14.02;;;15.50;99.90;;;;;;4903614;29;20032;-90
2022/12/31 11:21:05;;;;;;;24.08;13.88;;;15.60;99.90;;;;;;4948655;29;20031;-90
2022/12/31 11:23:54;;;;;;;20.30;13.65;;;15.60;99.90;;;;;;4954835;29;20051;-91
2022/12/31 11:26:41;;;;;;;19.23;17.33;;;15.60;99.90;;;;;;4947529;29;20041;-90
2022/12/31 11:29:14;;;;;;;16.38;14.65;;;15.60;99.90;;;;;;4956629;29;20472;-90
2022/12/31 11:32:36;;;;;;;24.40;15.38;;;15.70;99.90;;;;;;4923964;29;20039;-90
2022/12/31 11:35:11;;;;;;;24.35;15.02;;;15.70;99.90;;;;;;4844458;29;20037;-90
2022/12/31 11:38:11;;;;;;;17.08;12.55;;;15.70;99.90;;;;;;4844216;29;20040;-90
2022/12/31 11:41:01;;;;;;;17.83;12.88;;;15.70;99.90;;;;;;4793323;29;20153;-90
2022/12/31 11:43:48;;;;;;;15.90;12.63;;;15.70;99.90;;;;;;4790090;29;20073;-91
2022/12/31 11:46:23;;;;;;;17.45;13.52;;;15.70;99.90;;;;;;4804657;29;20035;-90
2022/12/31 11:49:18;;;;;;;15.45;13.98;;;15.70;99.90;;;;;;4806221;29;20524;-90
2022/12/31 11:51:59;;;;;;;20.95;13.35;;;15.70;99.90;;;;;;4750901;29;20048;-91
2022/12/31 11:54:32;;;;;;;18.33;15.00;;;15.80;99.90;;;;;;4751440;30;20063;-90
2022/12/31 11:57:17;;;;;;;16.23;12.73;;;15.80;99.90;;;;;;4751096;30;20424;-90
2022/12/31 11:59:43;;;;;;;19.75;13.27;;;15.80;99.90;;;;;;4751138;30;20550;-90
2022/12/31 12:02:31;;;;;;;23.70;13.73;;;15.80;99.90;;;;;;4750811;29;20044;-91
2022/12/31 12:04:58;;;;;;;17.23;13.13;;;15.80;99.90;;;;;;4764141;29;20051;-89
2022/12/31 12:07:25;;;;;;;20.30;14.18;;;15.90;99.90;;;;;;4804823;29;20042;-90
2022/12/31 12:09:52;;;;;;;16.63;14.60;;;15.90;99.90;;;;;;4804863;29;20059;-90
2022/12/31 12:12:18;;;;;;;19.42;17.52;;;15.90;99.90;;;;;;4804741;29;20035;-90
2022/12/31 12:14:45;;;;;;;19.58;17.92;;;15.90;99.90;;;;;;4804567;29;20042;-91
2022/12/31 12:17:30;;;;;;;25.95;14.70;;;15.90;99.90;;;;;;4831467;29;20041;-90
2022/12/31 12:20:00;;;;;;;16.55;14.90;;;15.90;99.90;;;;;;4851073;29;20045;-90
2022/12/31 12:22:26;;;;;;;15.32;13.32;;;15.90;99.90;;;;;;4879702;29;20037;-91
2022/12/31 12:24:53;;;;;;;17.08;15.25;;;15.90;99.90;;;;;;4881401;29;20126;-91
2022/12/31 12:27:25;;;;;;;24.90;16.85;;;15.90;99.90;;;;;;4884495;29;20036;-90
2022/12/31 12:29:51;;;;;;;20.17;15.35;;;16.00;99.90;;;;;;4940385;29;20035;-89
2022/12/31 12:32:18;;;;;;;18.90;14.52;;;16.00;99.90;;;;;;4923080;29;20426;-90
2022/12/31 12:34:44;;;;;;;19.25;14.30;;;15.90;99.90;;;;;;4922771;29;20493;-90
2022/12/31 12:37:23;;;;;;;16.50;14.90;;;16.00;99.90;;;;;;4938971;29;20039;-90
2022/12/31 12:40:00;;;;;;;19.02;17.13;;;15.90;99.90;;;;;;4938686;29;20039;-90
2022/12/31 12:42:27;;;;;;;17.25;15.38;;;16.00;99.90;;;;;;4907420;29;20036;-91
2022/12/31 12:45:05;;;;;;;16.20;14.63;;;16.00;99.90;;;;;;4907313;29;20038;-90
2022/12/31 12:47:31;;;;;;;17.70;16.00;;;16.00;99.90;;;;;;4921124;29;20108;-90
2022/12/31 12:49:57;;;;;;;19.15;17.35;;;16.00;99.90;;;;;;4905928;29;20046;-90
2022/12/31 12:52:51;;;;;;;18.88;15.95;;;16.00;99.90;;;;;;4923279;29;20473;-90
2022/12/31 12:55:32;;;;;;;20.85;15.35;;;16.00;99.90;;;;;;4924533;29;20108;-92
2022/12/31 12:58:21;;;;;;;;;;;16.00;99.90;;;;;;4924214;29;20044;-92
2022/12/31 13:01:15;;;;;;;16.30;14.48;;;16.00;99.90;;;;;;4920501;28;19933;-90
2022/12/31 13:04:11;;;;;;;18.23;16.48;;;16.00;99.90;;;;;;4942488;29;20027;-90
2022/12/31 13:06:52;;;;;;;16.90;15.20;;;16.00;99.90;;;;;;4925752;29;20051;-92
2022/12/31 13:09:22;;;;;;;;;;;16.00;99.90;;;;;;4943159;29;20031;-90